• Join FlightAware (Why Join?)
  • Login
  • US Flag 
06:38AM EDT


 

Airport Tracker/Info


-or-


 

Live Flight TrackerFlight Track Log ✈ N687MC ✈ 29-Apr-2012 ✈ KDAL - KIWS

Flight Track Log - Related Links

Times and Time Zones

All times are in EDT time to prevent confusion due to time zone crossing. See the N687MC flight status page for this flight to view local times or setup timezone preferences in your user account.

Time Position Orientation Groundspeed Altitude Reporting Facility
EDT Latitude Longitude Course Direction KTS MPH feet Rate Location/Type
07:07PM 32.3593 -96.6498 324° Northwest  Level FlightAware Approximate
07:08PM 32.4369 -96.7167 160° South 120 138 7,500  Level Fort Worth Center
07:09PM 32.4033 -96.7022 157° South 127 146 7,500  Level Fort Worth Center
07:10PM 32.3742 -96.6878 163° South 127 146 7,500  Level Fort Worth Center
07:11PM 32.3406 -96.6758 160° South 121 139 7,500  Level Fort Worth Center
07:12PM 32.3114 -96.6636 160° South 121 139 7,500  Level Fort Worth Center
07:13PM 32.2778 -96.6492 165° South 126 145 7,500  Level Fort Worth Center
07:14PM 32.2486 -96.6397 158° South 126 145 7,500  Level Fort Worth Center
07:15PM 32.2131 -96.6228 160° South 126 145 7,500  Level Fort Worth Center
07:16PM 32.1794 -96.6083 159° South 126 145 7,500  Level Fort Worth Center
07:17PM 32.1481 -96.5939 161° South 126 145 7,500  Level Fort Worth Center
07:23PM 31.9408 -96.5075 167° South 131 151 7,500  Level Fort Worth Center
07:24PM 31.9053 -96.4981 162° South 126 145 7,500  Level Fort Worth Center
07:25PM 31.8739 -96.4861 157° South 126 145 7,500  Level Fort Worth Center
07:26PM 31.8403 -96.4694 162° South 126 145 7,500  Level Fort Worth Center
07:27PM 31.8089 -96.4575 159° South 126 145 7,500  Level Fort Worth Center
07:28PM 31.7775 -96.4431 162° South 126 145 7,500  Level Fort Worth Center
07:29PM 31.7461 -96.4314 160° South 126 145 7,500  Level Fort Worth Center
07:30PM 31.7189 -96.4194 170° South 126 145 7,500  Level Fort Worth Center
07:31PM 31.6853 -96.4125 155° Southeast 126 145 7,500  Level Fort Worth Center
07:32PM 31.6497 -96.3933 167° South 120 138 7,500  Level Fort Worth Center
07:33PM 31.6161 -96.3839 157° South 121 139 7,500  Level Fort Worth Center
07:34PM 31.5828 -96.3672 165° South 120 138 7,500  Level Fort Worth Center
07:35PM 31.5533 -96.3578 162° South 125 144 7,500  Level Fort Worth Center
07:38PM 31.4592 -96.3228 158° South 118 136 7,500  Level Houston Center
07:39PM 31.4183 -96.3039 166° South 121 139 7,500  Level Houston Center
07:40PM 31.3894 -96.2953 158° South 123 142 7,500  Level Houston Center
07:41PM 31.3544 -96.2789 164° South 127 146 7,500  Level Houston Center
07:42PM 31.3214 -96.2678 160° South 123 142 7,500  Level Houston Center
07:43PM 31.2947 -96.2567 162° South 122 140 7,500  Level Houston Center
07:44PM 31.2597 -96.2431 159° South 120 138 7,500  Level Houston Center
07:45PM 31.2247 -96.2269 163° South 121 139 7,500  Level Houston Center
07:46PM 31.1939 -96.2158 159° South 122 140 7,500  Level Houston Center
07:47PM 31.1569 -96.1994 167° South 125 144 7,500  Level Houston Center
07:48PM 31.1239 -96.1908 156° South 119 137 7,500  Level Houston Center
07:49PM 31.0931 -96.1747 165° South 120 138 7,500  Level Houston Center
07:50PM 31.0581 -96.1636 161° South 123 142 7,500  Level Houston Center
07:51PM 31.0250 -96.1500 160° South 123 142 7,500  Level Houston Center
07:52PM 30.9983 -96.1389 162° South 122 140 7,500  Level Houston Center
07:53PM 30.9633 -96.1253 161° South 123 142 7,500  Level Houston Center
07:54PM 30.9303 -96.1117 161° South 125 144 7,500  Level Houston Center
07:55PM 30.8975 -96.0983 162° South 122 140 7,500  Level Houston Center
07:56PM 30.8603 -96.0844 156° South 124 143 7,500 -120 Level Houston Center
07:57PM 30.8297 -96.0686 166° South 129 148 7,300 -240 Descending Houston Center
07:58PM 30.7925 -96.0575 161° South 134 154 7,100 -180 Descending Houston Center
07:59PM 30.7594 -96.0439 164° South 127 146 7,000 -180 Descending Houston Center
08:00PM 30.7264 -96.0328 159° South 129 148 6,800 -240 Descending Houston Center
08:01PM 30.6894 -96.0167 165° South 129 148 6,600 -300 Descending Houston Center
08:02PM 30.6544 -96.0056 164° South 128 147 6,300 -360 Descending Houston Center
08:03PM 30.6214 -95.9944 150° Southeast 127 146 5,900 -360 Descending Houston Center
08:04PM 30.5906 -95.9739 146° Southeast 128 147 5,600 -300 Descending Houston Center
08:05PM 30.5581 -95.9483 161° South 130 150 5,400 -300 Descending Houston Center
08:07PM 30.5231 -95.9347 166° South 133 153 5,100 -360 Descending Houston Center
08:08PM 30.4858 -95.9236 169° South 134 154 4,700 -480 Descending Houston Center
08:09PM 30.4464 -95.9147 168° South 132 152 4,200 -420 Descending Houston Center
08:10PM 30.4114 -95.9061 152° Southeast 134 154 3,900 -420 Descending Houston Center
08:11PM 30.3825 -95.8881 162° South 127 146 3,500 -420 Descending Houston Center
08:12PM 30.3456 -95.8744 165° South 128 147 3,100 -420 Descending Houston Center
08:13PM 30.3103 -95.8633 160° South 130 150 2,700 -420 Descending Houston Center
08:14PM 30.2794 -95.8500 163° South 131 151 2,300 -360 Descending Houston Center
08:15PM 30.2403 -95.8364 160° South 125 144 2,000 -180 Descending Houston Center
08:16PM 30.2094 -95.8231 166° South 115 132 2,000  Level Houston Center
08:17PM 30.1803 -95.8147 160° South 119 137 2,000  Level Houston Center
08:18PM 30.1433 -95.7989 163° South 119 137 2,000 -120 Level Houston Center
08:19PM 30.1122 -95.7881 159° South 125 144 1,800 -120 Descending Houston Center
08:20PM 30.0814 -95.7747 159° South 119 137 1,800  Level Houston Center